Max, NE (69037)

4:49 AM MDT on March 27, 2015 (GMT -0600)
3 W 1N of Trenton, NE | | Change Station
CLOSE
Current Station
Personal Weather Station
Location: Trenton, NE
Elevation: 2844 ft
Nearby Weather Stations

Elev 2844 ft 40.19 °N, 101.07 °W | Updated 7 seconds ago

Snow
Snow
32.2 °F
Feels Like 32 °F
N
1.1
Wind Variable Wind from ESE
Gusts 2.5 mph

Today
High -- | Low -- °F
--% Chance of Precip.
Yesterday
High -- | Low -- °F
Precip. -- in
6:37 AM 7:04 PM
Waxing Crescent, 51% visible
Pressure 30.23 in
Visibility 9.0 miles
Clouds
Windchill 32 °F
Dew Point 32 °F
Humidity 99%
Rainfall 0.00 in
Snow Depth Not available.
UV 0.0 out of 12
Pollen 9.60 out of 12
Air Quality Not available.
Flu Activity Not available.
METAR KIML 270953Z AUTO 13005KT 9SM -SN 00/M01 A3020 RMK AO2 SNE09B53 SLP235 P0000 I1000 T00001011 $

More Conditions Fewer Conditions

Pressure 30.23 in
Visibility 9.0 miles
Clouds
Windchill 32 °F
Dew Point 32 °F
Humidity 99%
Rainfall 0.00 in
Snow Depth Not available.
UV 0.0 out of 12
Pollen 9.60 out of 12
Air Quality Not available.
Flu Activity Not available.
METAR KIML 270953Z AUTO 13005KT 9SM -SN 00/M01 A3020 RMK AO2 SNE09B53 SLP235 P0000 I1000 T00001011 $

More Conditions Fewer Conditions

10-Day Weather Forecast

Almanac

Astronomy

Mar. 27, 2015 Rise Set
Actual Time
Civil Twilight
Nautical Twilight
Astronomical Twilight
Moon
Length of Visible Light
Length of Day
Tomorrow will be .
, % of the Moon is Illuminated

Today's Extremes

State Highs State Lows

Community

WunderPhotos

Upload Photos

1,808,706 photos uploaded!

WunderBlogs® & News

Nearby

Air Quality

  Air Quality AQ Index Pollutant
Not available.

Snow Depth

Station Depth Elevation

Earthquake Activity

City Distance Mag. Time & Date
Minimum magnitude displayed is 2.5.

Coastal Water Temperatures

Place Temperature

Stations

Nearby Weather Stations

Station Location Temp. Windchill Dew Point Humidity Wind Precip. Elev Updated Type